Pitcairn, New York
Current Conditions -  °F | °C
As of 12:58 AM on Wednesday 22 Oct 2014 (Local Time) from KGTB Reporting Station
Overcast Overcast  
Wind Chill: 34°   Ceiling: 700
Heat Index: 42°   Visibility: 10mi
Dew Point: 41°   Wind: 16mph
Humidity: 95%   Direction: 50°NE
Pressure: 30.09"   Gusts: NA
Location:  44.1447°N, 75.2952°W
Report Text: KGTB 220458Z AUTO 05014KT 10SM OVC007 06/05 A3009 RMK AO2 SLP194 T00570050 401020057
Loading
Personal Weather Stations






























Interactive Weather Map
Tropical Storm Tracking
New forecast layout! Learn more

10-Day Weather Forecast

Advertisements
Track Severe Weather on mobile